Time;durP1;ratioP1;P1;durP2;ratioP2;P2;SDS_P1;SDS_P2;PMS_P1;PMS_P2;Temp;Humidity;BMP_temperature;BMP_pressure;BME280_temperature;BME280_humidity;BME280_pressure;Samples;Min_cycle;Max_cycle;Signal;HPM_P1;HPM_P2
2023/01/15 00:01:23;;;;;;;;;;;27.70;93.80;;;;;;5056205;28;19917;-72
2023/01/15 00:03:51;;;;;;;;;;;27.70;93.60;;;;;;5066359;28;19919;-72
2023/01/15 00:06:18;;;;;;;;;;;27.80;93.60;;;;;;5069660;28;19912;-74
2023/01/15 00:08:44;;;;;;;;;;;27.90;94.10;;;;;;5084257;28;19916;-72
2023/01/15 00:11:11;;;;;;;;;;;28.00;93.60;;;;;;5066613;28;20011;-75
2023/01/15 00:13:38;;;;;;;;;;;28.10;93.40;;;;;;5062926;28;20385;-69
2023/01/15 00:16:12;;;;;;;;;;;28.00;93.80;;;;;;5054778;28;19920;-70
2023/01/15 00:18:38;;;;;;;;;;;28.10;93.60;;;;;;5069565;28;19920;-72
2023/01/15 00:21:06;;;;;;;;;;;28.00;93.40;;;;;;5071928;28;19912;-74
2023/01/15 00:29:03;;;;;;;;;;;28.30;93.40;;;;;;5071912;28;19932;-72
2023/01/15 00:31:31;;;;;;;;;;;28.40;93.50;;;;;;5072754;28;19915;-74
2023/01/15 00:33:57;;;;;;;;;;;28.50;93.50;;;;;;5070312;28;19920;-74
2023/01/15 00:36:24;;;;;;;;;;;28.70;93.60;;;;;;5057509;28;20447;-73
2023/01/15 00:38:54;;;;;;;;;;;28.70;93.00;;;;;;5063597;28;19973;-74
2023/01/15 00:41:21;;;;;;;;;;;28.70;93.10;;;;;;5070927;28;19918;-75
2023/01/15 00:43:48;;;;;;;;;;;28.90;93.20;;;;;;5085847;28;20442;-74
2023/01/15 00:46:14;;;;;;;;;;;29.00;92.80;;;;;;5073255;28;20000;-76
2023/01/15 00:48:41;;;;;;;;;;;29.10;92.80;;;;;;5083701;28;20003;-77
2023/01/15 00:51:07;;;;;;;;;;;29.10;92.90;;;;;;5085106;28;19918;-76
2023/01/15 00:53:34;;;;;;;;;;;29.20;92.70;;;;;;5072919;28;19908;-72
2023/01/15 00:56:00;;;;;;;;;;;29.30;92.30;;;;;;5083307;28;20006;-72
2023/01/15 00:58:27;;;;;;;;;;;29.30;92.50;;;;;;5079459;28;20399;-70
2023/01/15 01:00:54;;;;;;;;;;;29.40;93.00;;;;;;5072755;28;19908;-74
2023/01/15 01:03:21;;;;;;;;;;;29.40;92.60;;;;;;5072590;28;19909;-74
2023/01/15 01:05:48;;;;;;;;;;;29.30;92.40;;;;;;5060164;28;20250;-73
2023/01/15 01:08:15;;;;;;;;;;;29.20;92.90;;;;;;5053057;28;19915;-76
2023/01/15 01:10:42;;;;;;;;;;;29.30;92.60;;;;;;5051514;28;19920;-72
2023/01/15 01:13:08;;;;;;;;;;;29.40;92.40;;;;;;5062833;28;19927;-77
2023/01/15 01:15:35;;;;;;;;;;;29.60;92.30;;;;;;5063137;28;19920;-76
2023/01/15 01:18:03;;;;;;;;;;;29.40;92.30;;;;;;5052691;28;19916;-76
2023/01/15 01:20:30;;;;;;;;;;;29.40;92.20;;;;;;5059756;28;20014;-74
2023/01/15 01:22:57;;;;;;;;;;;29.50;92.30;;;;;;5052507;28;20186;-73
2023/01/15 01:25:24;;;;;;;;;;;29.60;92.30;;;;;;5055571;28;20246;-74
2023/01/15 01:27:50;;;;;;;;;;;29.50;92.50;;;;;;5062666;28;19919;-76
2023/01/15 01:30:17;;;;;;;;;;;29.30;92.70;;;;;;5072773;28;19908;-73
2023/01/15 01:32:44;;;;;;;;;;;29.30;92.70;;;;;;5072942;28;20003;-75
2023/01/15 01:35:11;;;;;;;;;;;29.40;92.30;;;;;;5072668;28;19909;-74
2023/01/15 01:37:37;;;;;;;;;;;29.60;92.40;;;;;;5072431;28;19920;-73
2023/01/15 01:40:05;;;;;;;;;;;29.70;92.00;;;;;;5072736;28;20339;-72
2023/01/15 01:42:31;;;;;;;;;;;29.20;92.00;;;;;;5072506;28;19909;-69
2023/01/15 01:44:59;;;;;;;;;;;29.10;93.10;;;;;;5072667;28;19913;-69
2023/01/15 01:47:27;;;;;;;;;;;29.30;92.70;;;;;;5072384;28;19909;-69
2023/01/15 01:49:56;;;;;;;;;;;29.50;92.70;;;;;;5072128;28;20280;-69
2023/01/15 01:52:26;;;;;;;;;;;29.80;92.40;;;;;;5072339;28;19914;-70
2023/01/15 01:54:53;;;;;;;;;;;29.90;92.30;;;;;;5072598;28;19909;-69
2023/01/15 01:57:20;;;;;;;;;;;29.70;91.90;;;;;;5072713;28;19961;-69
2023/01/15 01:59:47;;;;;;;;;;;29.70;92.50;;;;;;5072452;28;19978;-69
2023/01/15 02:02:15;;;;;;;;;;;29.90;92.70;;;;;;5072381;28;20046;-68
2023/01/15 02:04:42;;;;;;;;;;;30.20;92.30;;;;;;5072563;28;19953;-69
2023/01/15 02:07:09;;;;;;;;;;;30.40;91.90;;;;;;5072191;28;20352;-75
2023/01/15 02:09:35;;;;;;;;;;;30.30;92.40;;;;;;5072367;28;20288;-76
2023/01/15 02:12:06;;;;;;;;;;;30.20;92.00;;;;;;5072577;28;20018;-76
2023/01/15 02:14:38;;;;;;;;;;;30.10;92.30;;;;;;5072195;28;20280;-69
2023/01/15 02:17:09;;;;;;;;;;;30.20;92.10;;;;;;5074845;28;19909;-68
2023/01/15 02:19:50;;;;;;;;;;;30.50;92.20;;;;;;5075561;28;20391;-72
2023/01/15 02:22:19;;;;;;;;;;;30.70;92.00;;;;;;5075723;28;19909;-70
2023/01/15 02:24:49;;;;;;;;;;;30.70;91.70;;;;;;5075645;28;19943;-74
2023/01/15 02:27:22;;;;;;;;;;;30.80;92.60;;;;;;5075742;28;19908;-71
2023/01/15 02:29:49;;;;;;;;;;;30.90;92.00;;;;;;5075709;28;19909;-69
2023/01/15 02:32:38;;;;;;;;;;;30.50;92.30;;;;;;5075764;28;19908;-70
2023/01/15 02:35:25;;;;;;;;;;;30.50;92.20;;;;;;5074925;28;20023;-70
2023/01/15 02:37:53;;;;;;;;;;;30.50;92.40;;;;;;5074261;28;19975;-69
2023/01/15 02:40:21;;;;;;;;;;;30.50;92.60;;;;;;5075712;28;20011;-69
2023/01/15 02:42:48;;;;;;;;;;;30.60;92.40;;;;;;5075589;28;19915;-74
2023/01/15 02:45:17;;;;;;;;;;;30.60;92.40;;;;;;5075732;28;20280;-69
2023/01/15 02:47:45;;;;;;;;;;;30.70;92.00;;;;;;5075635;28;19916;-70
2023/01/15 02:50:13;;;;;;;;;;;30.90;91.70;;;;;;5075614;28;19915;-77
2023/01/15 02:52:44;;;;;;;;;;;31.10;92.10;;;;;;5075595;28;19908;-78
2023/01/15 02:55:15;;;;;;;;;;;31.00;92.10;;;;;;5075505;28;19916;-71
2023/01/15 02:57:42;;;;;;;;;;;31.00;92.00;;;;;;5075257;28;19908;-70
2023/01/15 03:00:11;;;;;;;;;;;31.20;91.80;;;;;;5075629;28;19908;-72
2023/01/15 03:02:44;;;;;;;;;;;31.50;91.30;;;;;;5075420;28;19913;-69
2023/01/15 03:05:13;;;;;;;;;;;31.70;90.90;;;;;;5075086;28;19912;-69
2023/01/15 03:07:49;;;;;;;;;;;31.70;90.50;;;;;;5075254;28;20300;-69
2023/01/15 03:10:16;;;;;;;;;;;31.70;91.00;;;;;;5075342;28;20311;-71
2023/01/15 03:13:04;;;;;;;;;;;31.80;90.70;;;;;;5075180;28;20269;-71
2023/01/15 03:18:36;;;;;;;;;;;32.80;90.00;;;;;;5074846;28;19962;-75
2023/01/15 03:21:05;;;;;;;;;;;33.30;87.20;;;;;;5075132;28;20361;-71
2023/01/15 03:23:34;;;;;;;;;;;34.10;85.80;;;;;;5074973;28;19920;-74
2023/01/15 03:26:01;;;;;;;;;;;34.00;84.70;;;;;;5075173;28;20380;-70
2023/01/15 03:28:30;;;;;;;;;;;33.90;84.70;;;;;;5074846;28;19913;-73
2023/01/15 03:30:58;;;;;;;;;;;34.20;83.00;;;;;;5074870;28;19916;-71
2023/01/15 03:33:26;;;;;;;;;;;34.30;83.10;;;;;;5074926;28;19908;-72
2023/01/15 03:35:57;;;;;;;;;;;34.50;83.20;;;;;;5074748;28;19909;-71
2023/01/15 03:38:26;;;;;;;;;;;35.20;82.40;;;;;;5074549;28;20008;-70
2023/01/15 03:40:53;;;;;;;;;;;36.40;79.20;;;;;;5074823;28;19917;-75
2023/01/15 03:43:42;;;;;;;;;;;36.50;78.60;;;;;;5074597;28;19909;-77
2023/01/15 03:46:13;;;;;;;;;;;36.70;77.50;;;;;;5074685;28;19909;-77
2023/01/15 03:48:50;;;;;;;;;;;37.10;76.80;;;;;;5075132;28;20372;-77
2023/01/15 03:51:23;;;;;;;;;;;37.40;75.60;;;;;;5074609;28;19909;-79
2023/01/15 03:53:52;;;;;;;;;;;37.00;75.70;;;;;;5074966;28;19918;-70
2023/01/15 03:56:30;;;;;;;;;;;36.50;78.00;;;;;;5074445;28;19956;-70
2023/01/15 03:59:02;;;;;;;;;;;36.80;77.10;;;;;;5074264;28;20361;-71
2023/01/15 04:01:35;;;;;;;;;;;37.20;75.30;;;;;;5074219;28;19916;-75
2023/01/15 04:04:02;;;;;;;;;;;36.80;76.70;;;;;;5074347;28;19954;-71
2023/01/15 04:06:30;;;;;;;;;;;36.80;76.60;;;;;;5074320;28;19912;-74
2023/01/15 04:08:57;;;;;;;;;;;37.20;75.70;;;;;;5074294;28;19908;-74
2023/01/15 04:11:24;;;;;;;;;;;37.50;74.40;;;;;;5074554;28;20269;-76
2023/01/15 04:13:51;;;;;;;;;;;37.20;75.00;;;;;;5074024;28;19965;-77
2023/01/15 04:16:23;;;;;;;;;;;37.00;74.90;;;;;;5073933;28;20384;-73
2023/01/15 04:18:49;;;;;;;;;;;37.10;74.80;;;;;;5073997;28;19920;-76
2023/01/15 04:21:16;;;;;;;;;;;36.70;75.10;;;;;;5073999;28;19915;-75
2023/01/15 04:23:43;;;;;;;;;;;36.40;74.80;;;;;;5073956;28;20157;-72
2023/01/15 04:26:10;;;;;;;;;;;36.20;75.00;;;;;;5073629;28;20287;-71
2023/01/15 04:28:36;;;;;;;;;;;35.80;76.30;;;;;;5073883;28;19912;-74
2023/01/15 04:31:03;;;;;;;;;;;36.00;75.50;;;;;;5073763;28;19909;-73
2023/01/15 04:33:30;;;;;;;;;;;35.90;75.00;;;;;;5074144;28;20416;-71
2023/01/15 04:36:00;;;;;;;;;;;36.00;74.60;;;;;;5073959;28;20327;-71
2023/01/15 04:38:27;;;;;;;;;;;35.50;75.70;;;;;;5072792;28;20293;-72
2023/01/15 04:46:24;;;;;;;;;;;36.40;76.20;;;;;;5073757;28;19919;-74
2023/01/15 04:48:51;;;;;;;;;;;37.10;75.20;;;;;;5072302;28;19930;-71
2023/01/15 04:51:17;;;;;;;;;;;37.70;74.20;;;;;;5073109;28;19979;-77
2023/01/15 04:53:44;;;;;;;;;;;37.60;74.30;;;;;;5073763;28;19912;-76
2023/01/15 04:56:11;;;;;;;;;;;37.80;72.90;;;;;;5073661;28;19969;-76
2023/01/15 04:58:37;;;;;;;;;;;37.70;74.00;;;;;;5073274;28;20338;-74
2023/01/15 05:01:10;;;;;;;;;;;37.60;72.90;;;;;;5073219;28;19915;-73
2023/01/15 05:03:36;;;;;;;;;;;37.70;73.50;;;;;;5073173;28;20365;-78
2023/01/15 05:06:03;;;;;;;;;;;37.40;73.10;;;;;;5073509;28;19963;-78
2023/01/15 05:08:30;;;;;;;;;;;37.70;72.90;;;;;;5073220;28;19970;-75
2023/01/15 05:11:00;;;;;;;;;;;38.60;71.80;;;;;;5073228;28;19972;-74
2023/01/15 05:13:27;;;;;;;;;;;38.00;72.30;;;;;;5073580;28;19919;-75
2023/01/15 05:15:54;;;;;;;;;;;38.30;72.10;;;;;;5054348;28;19920;-74
2023/01/15 05:18:20;;;;;;;;;;;38.50;71.30;;;;;;5053526;28;19962;-75
2023/01/15 05:20:47;;;;;;;;;;;38.60;71.00;;;;;;5053079;28;19995;-75
2023/01/15 05:23:13;;;;;;;;;;;37.90;73.20;;;;;;5053529;28;20349;-75
2023/01/15 05:25:40;;;;;;;;;;;38.10;72.90;;;;;;5053264;28;19915;-76
2023/01/15 05:28:07;;;;;;;;;;;37.70;73.50;;;;;;5053267;28;19936;-72
2023/01/15 05:30:33;;;;;;;;;;;37.50;73.30;;;;;;5052841;28;19915;-73
2023/01/15 05:33:00;;;;;;;;;;;37.20;72.90;;;;;;5053420;28;20357;-75
2023/01/15 05:35:26;;;;;;;;;;;37.70;72.00;;;;;;5053336;28;19909;-77
2023/01/15 05:37:53;;;;;;;;;;;37.80;72.00;;;;;;5052817;28;20369;-77
2023/01/15 05:40:20;;;;;;;;;;;37.60;72.50;;;;;;5053028;28;19913;-76
2023/01/15 05:42:46;;;;;;;;;;;37.10;73.60;;;;;;5054165;28;19917;-77
2023/01/15 05:45:14;;;;;;;;;;;37.50;73.10;;;;;;5053382;28;19909;-77
2023/01/15 05:47:41;;;;;;;;;;;37.00;73.80;;;;;;5053676;28;19916;-76
2023/01/15 05:50:08;;;;;;;;;;;37.10;74.70;;;;;;5055177;28;19909;-72
2023/01/15 05:52:35;;;;;;;;;;;37.20;74.20;;;;;;5056569;28;19909;-77
2023/01/15 05:55:01;;;;;;;;;;;36.80;74.40;;;;;;5057093;28;20476;-76
2023/01/15 05:57:28;;;;;;;;;;;36.10;76.70;;;;;;5056972;28;19967;-77
2023/01/15 05:59:55;;;;;;;;;;;35.50;77.00;;;;;;5056560;28;19917;-76
2023/01/15 06:02:22;;;;;;;;;;;35.00;78.90;;;;;;5056650;28;19915;-75
2023/01/15 06:04:48;;;;;;;;;;;34.90;78.90;;;;;;5056561;28;19916;-73
2023/01/15 06:07:16;;;;;;;;;;;35.10;77.90;;;;;;5056314;28;19916;-75
2023/01/15 06:09:44;;;;;;;;;;;35.20;77.70;;;;;;5057058;28;19909;-79
2023/01/15 06:12:10;;;;;;;;;;;34.80;78.20;;;;;;5056375;28;19909;-79
2023/01/15 06:14:37;;;;;;;;;;;34.40;78.90;;;;;;5055361;28;19943;-75
2023/01/15 06:17:04;;;;;;;;;;;33.60;80.70;;;;;;5056357;28;20023;-71
2023/01/15 06:19:31;;;;;;;;;;;32.70;83.00;;;;;;5056496;28;19923;-74
2023/01/15 06:21:57;;;;;;;;;;;32.40;84.00;;;;;;5055948;28;19913;-72
2023/01/15 06:24:24;;;;;;;;;;;31.70;86.10;;;;;;5054927;28;19971;-72
2023/01/15 06:26:50;;;;;;;;;;;31.30;87.30;;;;;;5056120;28;20010;-72
2023/01/15 06:29:19;;;;;;;;;;;31.00;88.40;;;;;;5055903;28;19916;-75
2023/01/15 06:31:46;;;;;;;;;;;30.90;88.70;;;;;;5055633;28;19915;-73
2023/01/15 06:34:13;;;;;;;;;;;30.80;88.80;;;;;;5055798;28;19909;-73
2023/01/15 06:36:39;;;;;;;;;;;30.60;89.60;;;;;;5055721;28;20007;-71
2023/01/15 06:39:06;;;;;;;;;;;30.70;89.00;;;;;;5055744;28;19921;-76
2023/01/15 06:47:20;;;;;;;;;;;29.90;90.60;;;;;;5055463;28;19928;-75
2023/01/15 06:49:48;;;;;;;;;;;29.80;90.60;;;;;;5055748;28;20380;-73
2023/01/15 06:52:14;;;;;;;;;;;29.90;90.80;;;;;;5055546;28;19908;-76
2023/01/15 06:54:41;;;;;;;;;;;29.90;90.60;;;;;;5055503;28;20313;-76
2023/01/15 06:57:08;;;;;;;;;;;30.10;90.40;;;;;;5055292;28;19909;-76
2023/01/15 06:59:34;;;;;;;;;;;30.10;90.30;;;;;;5055333;28;19997;-74
2023/01/15 07:02:01;;;;;;;;;;;30.30;90.30;;;;;;5054661;28;19909;-77
2023/01/15 07:04:28;;;;;;;;;;;30.10;90.30;;;;;;5055345;28;20299;-71
2023/01/15 07:06:54;;;;;;;;;;;29.80;90.70;;;;;;5055093;28;19908;-71
2023/01/15 07:09:21;;;;;;;;;;;29.70;90.80;;;;;;5055190;28;19909;-74
2023/01/15 07:11:51;;;;;;;;;;;29.50;91.00;;;;;;5055255;28;19909;-70
2023/01/15 07:14:19;;;;;;;;;;;29.30;90.90;;;;;;5057779;28;20337;-73
2023/01/15 07:16:45;;;;;;;;;;;29.00;91.30;;;;;;5074949;28;20276;-71
2023/01/15 07:19:12;;;;;;;;;;;28.70;91.70;;;;;;5075009;28;20086;-71
2023/01/15 07:21:39;;;;;;;;;;;28.50;91.90;;;;;;5074941;28;19915;-72
2023/01/15 07:24:07;;;;;;;;;;;28.30;92.30;;;;;;5074960;28;20327;-70
2023/01/15 07:26:34;;;;;;;;;;;28.20;92.70;;;;;;5075215;28;19913;-74
2023/01/15 07:29:00;;;;;;;;;;;28.00;92.70;;;;;;5075462;28;19908;-72
2023/01/15 07:31:27;;;;;;;;;;;28.00;93.00;;;;;;5074816;28;19954;-78
2023/01/15 07:33:55;;;;;;;;;;;27.80;93.50;;;;;;5075052;28;19912;-71
2023/01/15 07:36:22;;;;;;;;;;;27.80;93.80;;;;;;5074983;28;20420;-68
2023/01/15 07:38:49;;;;;;;;;;;27.60;93.60;;;;;;5074518;28;19928;-70
2023/01/15 07:49:45;;;;;;;;;;;27.00;95.60;;;;;;5075079;28;20011;-74
2023/01/15 07:52:16;;;;;;;;;;;27.00;95.70;;;;;;5074944;28;19908;-74
2023/01/15 07:54:43;;;;;;;;;;;27.00;96.00;;;;;;5074733;28;19909;-69
2023/01/15 07:57:10;;;;;;;;;;;26.90;96.10;;;;;;5074390;28;19916;-73
2023/01/15 07:59:37;;;;;;;;;;;26.90;96.20;;;;;;5074333;28;20373;-75
2023/01/15 08:02:04;;;;;;;;;;;27.00;96.20;;;;;;5074415;28;19909;-70
2023/01/15 08:04:30;;;;;;;;;;;27.00;96.30;;;;;;5074394;28;19908;-69
2023/01/15 08:07:00;;;;;;;;;;;27.00;96.40;;;;;;5074200;28;19913;-69
2023/01/15 08:09:27;;;;;;;;;;;26.90;96.50;;;;;;5074404;28;19980;-72
2023/01/15 08:17:23;;;;;;;;;;;26.80;96.90;;;;;;5073670;28;19939;-71
2023/01/15 08:19:50;;;;;;;;;;;26.70;97.30;;;;;;5073729;28;20284;-71
2023/01/15 08:22:16;;;;;;;;;;;26.60;97.60;;;;;;5074128;28;19954;-73
2023/01/15 08:24:43;;;;;;;;;;;26.60;97.80;;;;;;5074430;28;19912;-75
2023/01/15 08:27:10;;;;;;;;;;;26.50;98.00;;;;;;5073645;28;19909;-70
2023/01/15 08:29:36;;;;;;;;;;;26.50;98.10;;;;;;5073581;28;19908;-71
2023/01/15 08:32:03;;;;;;;;;;;26.50;98.30;;;;;;5073643;28;19915;-69
2023/01/15 08:34:38;;;;;;;;;;;26.50;98.50;;;;;;5110508;27;19920;-68
2023/01/15 08:37:05;;;;;;;;;;;26.40;98.80;;;;;;5110797;28;19912;-70
2023/01/15 08:39:32;;;;;;;;;;;26.40;98.90;;;;;;5110602;28;20319;-68
2023/01/15 08:41:59;;;;;;;;;;;26.30;99.00;;;;;;5110685;28;20288;-69
2023/01/15 08:44:25;;;;;;;;;;;26.20;99.40;;;;;;5110698;28;19912;-69
2023/01/15 08:46:52;;;;;;;;;;;26.10;99.70;;;;;;5110601;28;19915;-70
2023/01/15 08:49:20;;;;;;;;;;;26.00;99.60;;;;;;5110246;28;19908;-69
2023/01/15 08:51:50;;;;;;;;;;;26.00;99.90;;;;;;5110391;28;19904;-73
2023/01/15 08:54:20;;;;;;;;;;;25.90;99.90;;;;;;5110398;28;19916;-70
2023/01/15 08:56:48;;;;;;;;;;;26.00;99.80;;;;;;5110428;28;20361;-73
2023/01/15 08:59:15;;;;;;;;;;;26.00;99.90;;;;;;5110656;28;19914;-68
2023/01/15 09:01:43;;;;;;;;;;;26.00;99.70;;;;;;5109974;28;19952;-75
2023/01/15 09:04:13;;;;;;;;;;;25.90;99.70;;;;;;5110146;28;19994;-68
2023/01/15 09:06:39;;;;;;;;;;;25.80;99.80;;;;;;5110243;28;19934;-69
2023/01/15 09:09:06;;;;;;;;;;;25.70;99.90;;;;;;5110226;28;19908;-71
2023/01/15 09:11:33;;;;;;;;;;;25.70;99.90;;;;;;5110131;28;19953;-76
2023/01/15 09:14:00;;;;;;;;;;;25.80;99.80;;;;;;5108462;28;19923;-69
2023/01/15 09:16:26;;;;;;;;;;;25.80;99.60;;;;;;5109726;28;19912;-70
2023/01/15 09:18:53;;;;;;;;;;;25.80;99.50;;;;;;5109986;28;19908;-70
2023/01/15 09:21:20;;;;;;;;;;;25.90;99.60;;;;;;5109789;28;19912;-74
2023/01/15 09:23:47;;;;;;;;;;;25.80;99.70;;;;;;5109715;28;19908;-70
2023/01/15 09:26:31;;;;;;;;;;;25.70;99.90;;;;;;5109598;28;19908;-71
2023/01/15 09:28:58;;;;;;;;;;;25.80;99.90;;;;;;5109678;28;19969;-69
2023/01/15 09:31:25;;;;;;;;;;;25.80;99.90;;;;;;5109700;28;20337;-69
2023/01/15 09:33:51;;;;;;;;;;;25.80;99.90;;;;;;5109554;28;19920;-71
2023/01/15 09:36:22;;;;;;;;;;;25.80;99.80;;;;;;5109842;28;19916;-69
2023/01/15 09:38:49;;;;;;;;;;;25.90;99.80;;;;;;5109637;28;19919;-69
2023/01/15 09:44:09;;;;;;;;;;;25.90;99.90;;;;;;5107211;28;20414;-69
2023/01/15 09:46:49;;;;;;;;;;;25.90;99.90;;;;;;5095653;28;19953;-69
2023/01/15 09:49:16;;;;;;;;;;;25.80;99.90;;;;;;5095500;28;19919;-70
2023/01/15 09:52:02;;;;;;;;;;;25.90;99.90;;;;;;5095585;28;19913;-69
2023/01/15 09:54:41;;;;;;;;;;;25.90;99.80;;;;;;5093834;28;19927;-69
2023/01/15 09:57:15;;;;;;;;;;;25.90;99.90;;;;;;5095663;28;20407;-70
2023/01/15 09:59:43;;;;;;;;;;;25.80;99.90;;;;;;5095647;28;19908;-70
2023/01/15 10:02:16;;;;;;;;;;;25.80;99.90;;;;;;5095274;28;20045;-70
2023/01/15 10:04:44;;;;;;;;;;;25.80;99.90;;;;;;5095574;28;19913;-71
2023/01/15 10:07:11;;;;;;;;;;;25.70;99.90;;;;;;5095255;28;19916;-69
2023/01/15 10:09:40;;;;;;;;;;;25.80;99.90;;;;;;5083310;28;19909;-71
2023/01/15 10:12:37;;;;;;;;;;;25.80;99.90;;;;;;5074976;28;19974;-68
2023/01/15 10:15:21;;;;;;;;;;;25.80;99.90;;;;;;5074810;28;20274;-70
2023/01/15 10:18:08;;;;;;;;;;;25.90;99.90;;;;;;5074998;28;19999;-70
2023/01/15 10:20:50;;;;;;;;;;;25.80;99.90;;;;;;5073800;28;19908;-70
2023/01/15 10:23:31;;;;;;;;;;;25.80;99.90;;;;;;5074989;28;20012;-69
2023/01/15 10:26:33;;;;;;;;;;;25.80;99.90;;;;;;5074681;28;19996;-70
2023/01/15 10:29:00;;;;;;;;;;;25.70;99.90;;;;;;5072648;28;19908;-69
2023/01/15 10:31:44;;;;;;;;;;;25.70;99.90;;;;;;5074468;28;19955;-70
2023/01/15 10:34:26;;;;;;;;;;;25.50;99.90;;;;;;5074924;28;19973;-71
2023/01/15 10:37:00;;;;;;;;;;;25.50;99.90;;;;;;5074697;28;20005;-71
2023/01/15 10:39:36;;;;;;;;;;;25.40;99.90;;;;;;5074763;28;19947;-71
2023/01/15 10:42:06;;;;;;;;;;;25.40;99.90;;;;;;5074480;28;20426;-69
2023/01/15 10:44:42;;;;;;;;;;;25.40;99.90;;;;;;5074469;28;19915;-69
2023/01/15 10:47:14;;;;;;;;;;;25.40;99.90;;;;;;5074372;28;20003;-70
2023/01/15 10:49:42;;;;;;;;;;;25.40;99.90;;;;;;5074392;28;19946;-68
2023/01/15 10:52:11;;;;;;;;;;;25.30;99.90;;;;;;5074089;28;19919;-70
2023/01/15 10:54:41;;;;;;;;;;;25.30;99.90;;;;;;5074181;28;19923;-72
2023/01/15 10:57:20;;;;;;;;;;;25.30;99.90;;;;;;5072884;28;19909;-70
2023/01/15 10:59:50;;;;;;;;;;;25.30;99.90;;;;;;5079066;28;20030;-71
2023/01/15 11:02:34;;;;;;;;;;;25.20;99.90;;;;;;5086251;28;20213;-69
2023/01/15 11:05:02;;;;;;;;;;;25.10;99.90;;;;;;5075596;28;20446;-68
2023/01/15 11:07:40;;;;;;;;;;;25.10;99.90;;;;;;5075527;28;19912;-70
2023/01/15 11:10:14;;;;;;;;;;;25.10;99.90;;;;;;5081981;28;19931;-73
2023/01/15 11:21:21;;;;;;;;;;;25.10;99.90;;;;;;5076345;28;19947;-77
2023/01/15 11:23:48;;;;;;;;;;;25.00;99.90;;;;;;5086810;28;19908;-70
2023/01/15 11:26:28;;;;;;;;;;;25.10;99.90;;;;;;5102049;28;19915;-72
2023/01/15 11:28:57;;;;;;;;;;;25.10;99.90;;;;;;5096076;28;19930;-68
2023/01/15 11:31:34;;;;;;;;;;;25.10;99.90;;;;;;5093418;28;19916;-75
2023/01/15 11:34:02;;;;;;;;;;;25.10;99.90;;;;;;5088599;28;19920;-69
2023/01/15 11:36:29;;;;;;;;;;;25.10;99.90;;;;;;5074867;28;20019;-68
2023/01/15 11:38:56;;;;;;;;;;;25.10;99.90;;;;;;5087072;28;20257;-69
2023/01/15 11:52:47;;;;;;;;;;;24.90;99.90;;;;;;5105768;28;19981;-69
2023/01/15 11:55:15;;;;;;;;;;;24.80;99.90;;;;;;5096916;28;19969;-69
2023/01/15 11:57:42;;;;;;;;;;;24.80;99.90;;;;;;5102625;28;19908;-69
2023/01/15 12:00:20;;;;;;;;;;;24.70;99.90;;;;;;5093094;28;20032;-68
2023/01/15 12:02:51;;;;;;;;;;;24.70;99.90;;;;;;5100816;28;19912;-68
2023/01/15 12:05:24;;;;;;;;;;;24.70;99.90;;;;;;5113577;28;19915;-69
2023/01/15 12:07:52;;;;;;;;;;;24.70;99.90;;;;;;5101574;28;19915;-69
2023/01/15 12:13:49;;;;;;;;;;;24.60;99.90;;;;;;5072058;28;19975;-69
2023/01/15 12:16:21;;;;;;;;;;;24.60;99.90;;;;;;5082349;28;19912;-69
2023/01/15 12:18:56;;;;;;;;;;;24.60;99.90;;;;;;5076291;28;19912;-72
2023/01/15 12:21:22;;;;;;;;;;;24.50;99.90;;;;;;5076932;28;19970;-69
2023/01/15 12:23:49;;;;;;;;;;;24.50;99.90;;;;;;5093079;28;19966;-69
2023/01/15 12:26:40;;;;;;;;;;;24.50;99.90;;;;;;5078433;28;20007;-69
2023/01/15 12:29:15;;;;;;;;;;;24.50;99.90;;;;;;5072713;28;19909;-71
2023/01/15 12:31:45;;;;;;;;;;;24.50;99.90;;;;;;5072918;28;20364;-69
2023/01/15 12:34:24;;;;;;;;;;;24.50;99.90;;;;;;5072287;28;19920;-71
2023/01/15 12:36:52;;;;;;;;;;;24.50;99.90;;;;;;5072955;28;19962;-70
2023/01/15 12:39:19;;;;;;;;;;;24.40;99.90;;;;;;5072690;28;19917;-72
2023/01/15 12:47:19;;;;;;;;;;;24.40;99.90;;;;;;5072370;28;19915;-70
2023/01/15 12:49:48;;;;;;;;;;;24.30;99.90;;;;;;5072588;28;19948;-70
2023/01/15 12:52:21;;;;;;;;;;;24.30;99.90;;;;;;5072760;28;19915;-70
2023/01/15 12:54:51;;;;;;;;;;;24.30;99.90;;;;;;5072361;28;20011;-73
2023/01/15 12:57:24;;;;;;;;;;;24.20;99.90;;;;;;5072411;28;19930;-73
2023/01/15 12:59:54;;;;;;;;;;;24.20;99.90;;;;;;5072554;28;20276;-76
2023/01/15 13:02:40;;;;;;;;;;;24.20;99.90;;;;;;5072500;28;19915;-75
2023/01/15 13:05:06;;;;;;;;;;;24.20;99.90;;;;;;5072553;28;19932;-75
2023/01/15 13:07:36;;;;;;;;;;;24.20;99.90;;;;;;5072413;28;19913;-74
2023/01/15 13:10:15;;;;;;;;;;;24.20;99.90;;;;;;5072572;28;19908;-70
2023/01/15 13:12:42;;;;;;;;;;;24.10;99.90;;;;;;5072416;28;19913;-69
2023/01/15 13:15:12;;;;;;;;;;;24.10;99.90;;;;;;5078479;28;19938;-71
2023/01/15 13:17:45;;;;;;;;;;;24.10;99.90;;;;;;5091069;28;19958;-70
2023/01/15 13:20:17;;;;;;;;;;;24.10;99.90;;;;;;5093970;28;20265;-73
2023/01/15 13:22:49;;;;;;;;;;;24.20;99.90;;;;;;5095823;28;19908;-69
2023/01/15 13:25:25;;;;;;;;;;;24.20;99.90;;;;;;5077096;28;19913;-69
2023/01/15 13:27:56;;;;;;;;;;;24.20;99.90;;;;;;5075594;28;20372;-75
2023/01/15 13:30:38;;;;;;;;;;;24.10;99.90;;;;;;5075786;28;19912;-69
2023/01/15 13:33:25;;;;;;;;;;;24.10;99.90;;;;;;5075734;28;19927;-74
2023/01/15 13:35:56;;;;;;;;;;;24.10;99.90;;;;;;5081863;28;19963;-73
2023/01/15 13:38:26;;;;;;;;;;;24.20;99.90;;;;;;5082037;28;19912;-69
2023/01/15 13:40:54;;;;;;;;;;;24.10;99.90;;;;;;5076612;28;20265;-69
2023/01/15 13:43:40;;;;;;;;;;;24.20;99.90;;;;;;5081278;28;19915;-76
2023/01/15 13:46:09;;;;;;;;;;;24.10;99.90;;;;;;5080731;28;19912;-69
2023/01/15 13:48:40;;;;;;;;;;;24.10;99.90;;;;;;5088704;28;20368;-69
2023/01/15 13:51:07;;;;;;;;;;;24.00;99.90;;;;;;5077108;28;20368;-68
2023/01/15 13:53:39;;;;;;;;;;;24.10;99.90;;;;;;5088394;28;19923;-68
2023/01/15 13:56:08;;;;;;;;;;;24.00;99.90;;;;;;5084491;28;19919;-71
2023/01/15 13:58:38;;;;;;;;;;;24.00;99.90;;;;;;5095733;28;19908;-68
2023/01/15 14:01:06;;;;;;;;;;;23.90;99.90;;;;;;5092199;28;19923;-69
2023/01/15 14:03:37;;;;;;;;;;;24.00;99.90;;;;;;5084242;28;19932;-68
2023/01/15 14:06:08;;;;;;;;;;;24.00;99.90;;;;;;5079359;28;19920;-68
2023/01/15 14:08:44;;;;;;;;;;;24.00;99.90;;;;;;5090133;28;19912;-69
2023/01/15 14:11:29;;;;;;;;;;;24.00;99.90;;;;;;5088420;28;19919;-70
2023/01/15 14:14:08;;;;;;;;;;;24.10;99.90;;;;;;5083642;28;19964;-70
2023/01/15 14:16:53;;;;;;;;;;;24.10;99.90;;;;;;5080581;28;19919;-70
2023/01/15 14:19:43;;;;;;;;;;;24.10;99.90;;;;;;5084876;28;19915;-71
2023/01/15 14:22:27;;;;;;;;;;;24.20;99.90;;;;;;5091230;28;19947;-70
2023/01/15 14:25:12;;;;;;;;;;;24.20;99.90;;;;;;5086490;28;19917;-68
2023/01/15 14:27:48;;;;;;;;;;;24.10;99.90;;;;;;5081821;28;20361;-69
2023/01/15 14:30:32;;;;;;;;;;;24.10;99.90;;;;;;5090250;28;19912;-70
2023/01/15 14:33:06;;;;;;;;;;;24.20;99.90;;;;;;5089079;28;19924;-70
2023/01/15 14:35:34;;;;;;;;;;;24.20;99.90;;;;;;5090719;28;19974;-70
2023/01/15 14:38:07;;;;;;;;;;;24.20;99.90;;;;;;5079515;28;20425;-72
2023/01/15 14:40:35;;;;;;;;;;;24.30;99.90;;;;;;5080020;28;19916;-70
2023/01/15 14:43:09;;;;;;;;;;;24.20;99.90;;;;;;5085036;28;19965;-69
2023/01/15 14:45:35;;;;;;;;;;;24.30;99.90;;;;;;5092798;28;19966;-70
2023/01/15 14:48:04;;;;;;;;;;;24.30;99.90;;;;;;5093852;28;19912;-70
2023/01/15 14:50:38;;;;;;;;;;;24.40;99.90;;;;;;5085890;28;19920;-71
2023/01/15 14:53:12;;;;;;;;;;;24.40;99.90;;;;;;5083278;28;19922;-71
2023/01/15 14:55:58;;;;;;;;;;;24.40;99.90;;;;;;5084402;28;19925;-69
2023/01/15 14:58:37;;;;;;;;;;;24.50;99.90;;;;;;5075370;28;20364;-69
2023/01/15 15:01:13;;;;;;;;;;;24.40;99.90;;;;;;5080618;28;19956;-71
2023/01/15 15:03:45;;;;;;;;;;;24.50;99.90;;;;;;5086622;28;19958;-70
2023/01/15 15:06:13;;;;;;;;;;;24.50;99.90;;;;;;5078964;28;19912;-72
2023/01/15 15:08:40;;;;;;;;;;;24.30;99.90;;;;;;5087321;28;20281;-72
2023/01/15 15:12:17;;;;;;;;;;;24.30;99.90;;;;;;5093549;28;19912;-70
2023/01/15 15:13:59;;;;;;;;;;;24.20;99.90;;;;;;5084324;28;19981;-70
2023/01/15 15:16:27;;;;;;;;;;;24.20;99.90;;;;;;5087002;28;20069;-69
2023/01/15 15:19:00;;;;;;;;;;;24.10;99.90;;;;;;5093028;28;19957;-71
2023/01/15 15:21:28;;;;;;;;;;;24.00;99.90;;;;;;5093074;28;19912;-69
2023/01/15 15:23:58;;;;;;;;;;;23.90;99.90;;;;;;5092234;28;19915;-71
2023/01/15 15:26:24;;;;;;;;;;;23.90;99.90;;;;;;5092548;28;19919;-70
2023/01/15 15:28:56;;;;;;;;;;;23.90;99.90;;;;;;5088543;28;20011;-69
2023/01/15 15:31:26;;;;;;;;;;;23.90;99.90;;;;;;5077914;28;19912;-72
2023/01/15 15:33:56;;;;;;;;;;;23.90;99.90;;;;;;5089665;28;20027;-69
2023/01/15 15:36:25;;;;;;;;;;;23.90;99.90;;;;;;5085178;28;19919;-71
2023/01/15 15:39:11;;;;;;;;;;;23.90;99.90;;;;;;5084764;28;20336;-69